createdAt,value
2022-12-22T00:00:10.770Z,14.00
2022-12-22T00:03:00.156Z,10.97
2022-12-22T00:05:46.404Z,11.90
2022-12-22T00:08:32.431Z,10.37
2022-12-22T00:11:19.383Z,12.60
2022-12-22T00:14:05.836Z,9.60
2022-12-22T00:16:54.524Z,11.27
2022-12-22T00:19:41.029Z,10.37
2022-12-22T00:22:41.029Z,12.97
2022-12-22T00:25:32.799Z,9.47
2022-12-22T00:28:19.845Z,10.13
2022-12-22T00:31:06.738Z,12.03
2022-12-22T00:33:52.602Z,10.70
2022-12-22T00:36:42.270Z,9.27
2022-12-22T00:39:31.263Z,10.07
2022-12-22T00:42:17.371Z,11.10
2022-12-22T00:45:03.135Z,11.37
2022-12-22T00:47:49.781Z,16.17
2022-12-22T00:50:36.322Z,12.17
2022-12-22T00:53:23.547Z,14.50
2022-12-22T00:56:09.904Z,8.40
2022-12-22T00:58:55.833Z,9.60
2022-12-22T01:01:42.038Z,10.27
2022-12-22T01:04:31.017Z,12.60
2022-12-22T01:07:16.931Z,11.87
2022-12-22T01:10:09.583Z,10.00
2022-12-22T01:12:57.408Z,11.40
2022-12-22T01:15:44.981Z,14.20
2022-12-22T01:18:31.182Z,16.20
2022-12-22T01:21:17.181Z,10.40
2022-12-22T01:24:03.329Z,9.67
2022-12-22T01:26:49.803Z,13.17
2022-12-22T01:29:35.574Z,11.10
2022-12-22T01:32:21.448Z,9.80
2022-12-22T01:35:07.386Z,10.03
2022-12-22T01:37:53.287Z,12.63
2022-12-22T01:40:42.192Z,9.40
2022-12-22T01:43:44.822Z,12.13
2022-12-22T01:49:36.142Z,9.53
2022-12-22T01:52:23.526Z,11.97
2022-12-22T01:55:09.892Z,13.90
2022-12-22T01:57:56.420Z,15.93
2022-12-22T02:00:42.662Z,11.80
2022-12-22T02:03:40.497Z,11.60
2022-12-22T02:06:56.182Z,10.17
2022-12-22T02:10:24.073Z,14.57
2022-12-22T02:13:17.457Z,11.67
2022-12-22T02:16:20.164Z,11.53
2022-12-22T02:19:45.147Z,12.47
2022-12-22T02:22:53.555Z,17.63
2022-12-22T02:25:45.492Z,29.20
2022-12-22T02:28:32.398Z,23.55
2022-12-22T02:31:18.569Z,29.03
2022-12-22T02:34:04.546Z,18.40
2022-12-22T02:37:05.159Z,16.53
2022-12-22T02:40:40.889Z,13.07
2022-12-22T02:43:43.447Z,13.53
2022-12-22T02:46:51.166Z,10.93
2022-12-22T02:49:44.206Z,11.23
2022-12-22T02:52:45.662Z,12.93
2022-12-22T02:55:32.767Z,8.77
2022-12-22T02:58:19.734Z,8.70
2022-12-22T03:01:06.184Z,9.40
2022-12-22T03:03:52.202Z,7.40
2022-12-22T03:06:38.526Z,8.80
2022-12-22T03:09:24.756Z,9.77
2022-12-22T03:12:10.503Z,8.30
2022-12-22T03:14:56.288Z,11.93
2022-12-22T03:17:42.003Z,9.23
2022-12-22T03:20:28.353Z,8.30
2022-12-22T03:23:14.073Z,10.40
2022-12-22T03:25:54.073Z,11.70
2022-12-22T03:28:27.143Z,8.37
2022-12-22T03:31:00.146Z,8.23
2022-12-22T03:33:29.259Z,9.43
2022-12-22T03:35:57.125Z,8.70
2022-12-22T03:38:24.546Z,10.03
2022-12-22T03:40:52.448Z,9.40
2022-12-22T03:43:38.395Z,9.87
2022-12-22T03:46:15.149Z,8.73
2022-12-22T03:48:43.280Z,10.13
2022-12-22T03:51:11.215Z,8.83
2022-12-22T03:53:38.491Z,7.43
2022-12-22T03:56:08.082Z,7.40
2022-12-22T03:58:35.571Z,8.93
2022-12-22T04:01:07.993Z,7.70
2022-12-22T04:03:35.409Z,10.40
2022-12-22T04:06:02.889Z,10.00
2022-12-22T04:08:30.223Z,16.47
2022-12-22T04:11:16.079Z,8.73
2022-12-22T04:13:43.402Z,8.77
2022-12-22T04:16:10.845Z,12.73
2022-12-22T04:18:38.237Z,11.07
2022-12-22T04:21:05.621Z,10.70
2022-12-22T04:23:32.954Z,10.70
2022-12-22T04:26:00.494Z,14.23
2022-12-22T04:28:27.933Z,11.47
2022-12-22T04:30:55.327Z,12.27
2022-12-22T04:33:22.688Z,9.87
2022-12-22T04:35:49.983Z,8.47
2022-12-22T04:38:17.336Z,6.77
2022-12-22T04:40:44.712Z,10.53
2022-12-22T04:43:12.066Z,7.40
2022-12-22T04:45:39.423Z,10.80
2022-12-22T04:48:06.904Z,9.73
2022-12-22T04:50:34.223Z,11.20
2022-12-22T04:53:01.673Z,11.63
2022-12-22T04:55:28.992Z,10.10
2022-12-22T04:57:56.379Z,12.57
2022-12-22T05:00:23.764Z,9.17
2022-12-22T05:02:53.497Z,11.17
2022-12-22T05:05:20.927Z,13.57
2022-12-22T05:07:48.256Z,8.57
2022-12-22T05:10:15.617Z,10.83
2022-12-22T05:12:54.963Z,9.73
2022-12-22T05:15:31.685Z,14.90
2022-12-22T05:18:00.205Z,12.83
2022-12-22T05:20:28.467Z,9.83
2022-12-22T05:22:55.874Z,12.17
2022-12-22T05:25:23.299Z,7.83
2022-12-22T05:27:51.294Z,9.27
2022-12-22T05:30:19.740Z,9.00
2022-12-22T05:32:47.649Z,8.73
2022-12-22T05:35:15.445Z,11.50
2022-12-22T05:37:42.995Z,9.67
2022-12-22T05:40:11.728Z,8.70
2022-12-22T05:42:39.679Z,13.00
2022-12-22T05:45:16.271Z,9.67
2022-12-22T05:47:46.294Z,8.53
2022-12-22T05:50:15.811Z,8.77
2022-12-22T05:52:44.352Z,9.97
2022-12-22T05:55:13.199Z,10.27
2022-12-22T05:57:41.307Z,11.67
2022-12-22T06:00:13.131Z,10.07
2022-12-22T06:02:41.792Z,9.55
2022-12-22T06:05:11.343Z,11.83
2022-12-22T06:07:38.707Z,9.23
2022-12-22T06:10:11.912Z,9.30
2022-12-22T06:12:41.453Z,10.17
2022-12-22T06:15:12.249Z,7.33
2022-12-22T06:17:44.739Z,8.17
2022-12-22T06:20:13.985Z,11.63
2022-12-22T06:22:41.320Z,8.40
2022-12-22T06:25:12.153Z,8.00
2022-12-22T06:27:44.891Z,10.63
2022-12-22T06:30:12.703Z,11.13
2022-12-22T06:32:40.474Z,9.27
2022-12-22T06:35:09.802Z,13.93
2022-12-22T06:37:37.615Z,9.23
2022-12-22T06:40:06.068Z,11.13
2022-12-22T06:42:52.191Z,8.37
2022-12-22T06:45:19.554Z,7.03
2022-12-22T06:47:46.916Z,8.80
2022-12-22T06:50:14.319Z,10.10
2022-12-22T06:52:41.717Z,10.77
2022-12-22T06:55:09.272Z,8.43
2022-12-22T06:57:36.626Z,9.60
2022-12-22T07:00:05.645Z,11.00
2022-12-22T07:02:33.177Z,9.10
2022-12-22T07:05:00.561Z,9.50
2022-12-22T07:07:28.001Z,10.80
2022-12-22T07:09:56.513Z,7.70
2022-12-22T07:12:24.427Z,9.90
2022-12-22T07:14:51.856Z,11.30
2022-12-22T07:17:19.301Z,10.77
2022-12-22T07:19:46.665Z,13.27
2022-12-22T07:22:14.081Z,10.63
2022-12-22T07:24:41.392Z,10.03
2022-12-22T07:27:08.844Z,11.67
2022-12-22T07:29:36.788Z,9.33
2022-12-22T07:32:05.270Z,7.87
2022-12-22T07:34:32.641Z,12.13
2022-12-22T07:36:59.996Z,9.60
2022-12-22T07:39:27.307Z,7.60
2022-12-22T07:42:13.537Z,9.90
2022-12-22T07:44:40.855Z,7.93
2022-12-22T07:47:08.187Z,7.45
2022-12-22T07:49:54.070Z,8.30
2022-12-22T07:52:21.444Z,10.75
2022-12-22T07:54:48.814Z,10.38
2022-12-22T07:57:16.175Z,6.93
2022-12-22T07:59:43.455Z,8.90
2022-12-22T08:02:12.527Z,8.38
2022-12-22T08:04:39.999Z,8.20
2022-12-22T08:07:07.482Z,8.73
2022-12-22T08:09:34.830Z,8.25
2022-12-22T08:12:02.192Z,6.93
2022-12-22T08:14:29.505Z,9.88
2022-12-22T08:16:57.003Z,8.48
2022-12-22T08:19:24.349Z,9.23
2022-12-22T08:21:53.182Z,9.38
2022-12-22T08:24:21.860Z,10.93
2022-12-22T08:26:53.292Z,11.48
2022-12-22T08:29:25.479Z,8.98
2022-12-22T08:31:53.085Z,8.05
2022-12-22T08:34:20.790Z,7.15
2022-12-22T08:36:53.384Z,7.70
2022-12-22T08:39:22.917Z,7.40
2022-12-22T08:41:50.623Z,6.00
2022-12-22T08:44:26.632Z,8.98
2022-12-22T08:46:56.162Z,5.35
2022-12-22T08:49:24.340Z,6.82
2022-12-22T08:51:52.454Z,5.95
2022-12-22T08:54:20.485Z,5.30
2022-12-22T08:56:48.108Z,6.95
2022-12-22T08:59:16.172Z,5.97
2022-12-22T09:01:48.070Z,8.10
2022-12-22T09:04:17.856Z,7.65
2022-12-22T09:06:46.127Z,6.65
2022-12-22T09:09:15.048Z,6.68
2022-12-22T09:11:42.746Z,9.55
2022-12-22T09:14:11.102Z,10.35
2022-12-22T09:16:39.586Z,6.22
2022-12-22T09:19:07.691Z,7.28
2022-12-22T09:21:35.914Z,7.32
2022-12-22T09:24:04.581Z,4.38
2022-12-22T09:26:32.543Z,8.00
2022-12-22T09:28:59.880Z,12.15
2022-12-22T09:31:27.831Z,7.07
2022-12-22T09:33:55.606Z,7.68
2022-12-22T09:36:29.503Z,5.03
2022-12-22T09:38:57.745Z,5.45
2022-12-22T09:41:32.423Z,3.90
2022-12-22T09:44:24.543Z,4.32
2022-12-22T09:46:57.796Z,3.85
2022-12-22T09:49:25.580Z,5.25
2022-12-22T09:51:59.694Z,6.22
2022-12-22T09:54:52.023Z,5.38
2022-12-22T09:57:20.200Z,5.15
2022-12-22T09:59:48.076Z,4.88
2022-12-22T10:02:43.918Z,5.60
2022-12-22T10:05:54.315Z,4.25
2022-12-22T10:08:40.834Z,4.30
2022-12-22T10:11:14.418Z,5.00
2022-12-22T10:13:42.489Z,3.78
2022-12-22T10:16:28.237Z,4.93
2022-12-22T10:19:11.671Z,3.50
2022-12-22T10:21:46.352Z,5.78
2022-12-22T10:24:27.215Z,5.25
2022-12-22T10:26:58.950Z,4.97
2022-12-22T10:29:27.428Z,6.78
2022-12-22T10:32:01.948Z,7.55
2022-12-22T10:34:30.183Z,5.82
2022-12-22T10:37:02.822Z,7.05
2022-12-22T10:39:38.436Z,3.22
2022-12-22T10:42:13.736Z,6.30
2022-12-22T10:44:46.423Z,6.00
2022-12-22T10:47:20.883Z,5.55
2022-12-22T10:52:30.141Z,4.03
2022-12-22T10:55:19.233Z,4.30
2022-12-22T10:57:46.883Z,5.35
2022-12-22T11:00:28.606Z,6.25
2022-12-22T11:02:59.099Z,4.63
2022-12-22T11:05:27.077Z,5.10
2022-12-22T11:07:55.316Z,5.40
2022-12-22T11:10:47.740Z,3.72
2022-12-22T11:15:59.958Z,2.53
2022-12-22T11:19:09.729Z,0.20
2022-12-22T11:22:18.347Z,0.10
2022-12-22T11:25:15.798Z,0.85
2022-12-22T11:28:06.732Z,3.47
2022-12-22T11:30:53.592Z,0.40
2022-12-22T11:34:01.694Z,0.35
2022-12-22T11:36:54.788Z,1.90
2022-12-22T11:39:42.132Z,0.10
2022-12-22T11:42:43.397Z,0.15
2022-12-22T11:46:03.307Z,0.22
2022-12-22T11:48:49.722Z,0.10
2022-12-22T11:51:37.090Z,0.30
2022-12-22T11:57:40.257Z,0.68
2022-12-22T12:00:16.739Z,0.32
2022-12-22T12:03:16.380Z,0.20
2022-12-22T12:06:28.425Z,0.17
2022-12-22T12:09:25.796Z,0.50
2022-12-22T12:12:27.760Z,0.13
2022-12-22T12:15:21.297Z,2.00
2022-12-22T12:24:54.842Z,1.75
2022-12-22T12:27:37.530Z,0.32
2022-12-22T12:33:47.331Z,0.38
2022-12-22T12:36:26.881Z,1.75
2022-12-22T12:39:29.554Z,0.20
2022-12-22T12:44:35.221Z,6.47
2022-12-22T12:47:27.299Z,0.57
2022-12-22T12:49:58.574Z,0.20
2022-12-22T12:53:05.391Z,0.10
2022-12-22T12:56:06.767Z,0.00
2022-12-22T12:58:53.114Z,0.73
2022-12-22T13:01:58.829Z,0.10
2022-12-22T13:05:05.318Z,0.32
2022-12-22T13:19:15.806Z,0.25
2022-12-22T13:21:54.193Z,0.85
2022-12-22T13:24:27.501Z,0.90
2022-12-22T13:27:02.294Z,0.10
2022-12-22T13:29:46.524Z,0.08
2022-12-22T13:32:22.649Z,0.45
2022-12-22T13:35:32.002Z,0.32
2022-12-22T13:38:01.567Z,1.38
2022-12-22T13:40:32.027Z,0.25
2022-12-22T13:43:10.027Z,0.70
2022-12-22T13:45:39.466Z,0.50
2022-12-22T13:48:14.329Z,0.38
2022-12-22T13:51:07.046Z,0.50
2022-12-22T13:56:46.870Z,1.05
2022-12-22T13:59:40.489Z,0.45
2022-12-22T14:02:17.440Z,1.45
2022-12-22T14:05:06.719Z,0.22
2022-12-22T14:07:34.190Z,0.55
2022-12-22T14:10:02.117Z,0.52
2022-12-22T14:12:41.203Z,0.38
2022-12-22T14:15:17.035Z,1.20
2022-12-22T14:17:52.126Z,0.40
2022-12-22T14:20:20.261Z,0.30
2022-12-22T14:22:53.797Z,1.23
2022-12-22T14:25:31.447Z,0.13
2022-12-22T14:27:59.987Z,0.40
2022-12-22T14:30:38.293Z,0.28
2022-12-22T14:33:33.732Z,0.50
2022-12-22T14:36:16.517Z,0.10
2022-12-22T14:38:49.616Z,0.47
2022-12-22T14:41:43.252Z,0.70
2022-12-22T14:44:20.164Z,1.75
2022-12-22T14:47:22.251Z,0.60
2022-12-22T14:50:04.622Z,0.47
2022-12-22T14:52:43.079Z,1.90
2022-12-22T14:55:42.184Z,1.25
2022-12-22T14:58:20.949Z,0.17
2022-12-22T15:01:09.423Z,0.20
2022-12-22T15:03:38.862Z,0.50
2022-12-22T15:06:34.277Z,0.28
2022-12-22T15:09:47.324Z,0.43
2022-12-22T15:15:16.027Z,0.60
2022-12-22T15:17:46.346Z,0.47
2022-12-22T15:20:20.339Z,1.30
2022-12-22T15:22:48.111Z,0.60
2022-12-22T15:25:18.190Z,0.22
2022-12-22T15:27:45.589Z,0.82
2022-12-22T15:30:15.491Z,0.22
2022-12-22T15:32:43.995Z,0.40
2022-12-22T15:35:33.077Z,2.92
2022-12-22T15:38:00.828Z,1.80
2022-12-22T15:40:28.731Z,0.40
2022-12-22T15:42:56.659Z,0.55
2022-12-22T15:45:24.014Z,0.20
2022-12-22T15:47:53.634Z,1.70
2022-12-22T15:50:26.114Z,4.05
2022-12-22T15:52:56.449Z,1.70
2022-12-22T15:55:24.752Z,0.30
2022-12-22T15:57:56.338Z,1.67
2022-12-22T16:00:24.473Z,1.33
2022-12-22T16:02:52.027Z,2.65
2022-12-22T16:05:19.571Z,0.55
2022-12-22T16:07:46.907Z,1.88
2022-12-22T16:10:27.518Z,2.42
2022-12-22T16:13:00.407Z,0.40
2022-12-22T16:15:33.271Z,2.42
2022-12-22T16:18:01.945Z,1.58
2022-12-22T16:20:37.811Z,1.25
2022-12-22T16:23:07.965Z,1.13
2022-12-22T16:25:38.683Z,1.05
2022-12-22T16:28:06.970Z,0.52
2022-12-22T16:30:34.749Z,0.80
2022-12-22T16:33:02.157Z,1.00
2022-12-22T16:35:30.487Z,0.90
2022-12-22T16:37:59.679Z,1.35
2022-12-22T16:40:28.293Z,2.33
2022-12-22T16:45:48.380Z,1.92
2022-12-22T16:48:20.022Z,2.42
2022-12-22T16:50:48.022Z,3.88
2022-12-22T16:53:15.488Z,3.63
2022-12-22T16:55:43.153Z,2.85
2022-12-22T16:58:14.349Z,2.92
2022-12-22T17:00:44.550Z,3.33
2022-12-22T17:03:36.619Z,2.83
2022-12-22T17:06:05.323Z,2.97
2022-12-22T17:08:37.003Z,4.57
2022-12-22T17:11:11.123Z,5.07
2022-12-22T17:13:39.113Z,4.47
2022-12-22T17:16:06.636Z,6.25
2022-12-22T17:18:35.481Z,5.15
2022-12-22T17:21:04.269Z,6.32
2022-12-22T17:23:36.246Z,4.50
2022-12-22T17:26:07.362Z,4.40
2022-12-22T17:28:36.497Z,6.93
2022-12-22T17:31:04.055Z,5.47
2022-12-22T17:33:32.476Z,7.38
2022-12-22T17:36:01.198Z,5.35
2022-12-22T17:38:29.365Z,4.32
2022-12-22T17:40:57.685Z,6.35
2022-12-22T17:43:25.260Z,7.97
2022-12-22T17:45:53.545Z,5.60
2022-12-22T17:48:20.941Z,10.25
2022-12-22T17:50:49.775Z,7.50
2022-12-22T17:53:21.002Z,8.13
2022-12-22T17:58:36.373Z,10.52
2022-12-22T18:01:04.109Z,10.75
2022-12-22T18:03:31.592Z,8.57
2022-12-22T18:05:59.432Z,8.73
2022-12-22T18:08:26.838Z,5.65
2022-12-22T18:10:54.139Z,7.20
2022-12-22T18:13:25.208Z,7.47
2022-12-22T18:15:53.350Z,10.98
2022-12-22T18:18:21.051Z,9.52
2022-12-22T18:21:05.933Z,5.88
2022-12-22T18:23:36.681Z,6.57
2022-12-22T18:26:08.304Z,6.00
2022-12-22T18:28:36.657Z,7.82
2022-12-22T18:31:04.046Z,6.90
2022-12-22T18:33:31.481Z,5.97
2022-12-22T18:35:59.566Z,6.45
2022-12-22T18:38:30.473Z,5.78
2022-12-22T18:40:58.355Z,6.57
2022-12-22T18:43:26.063Z,5.53
2022-12-22T18:45:53.404Z,5.70
2022-12-22T18:48:20.739Z,6.43
2022-12-22T18:50:48.861Z,6.53
2022-12-22T18:53:26.844Z,9.18
2022-12-22T18:55:54.494Z,9.15
2022-12-22T18:58:22.053Z,6.47
2022-12-22T19:00:50.419Z,6.20
2022-12-22T19:03:31.283Z,7.40
2022-12-22T19:05:58.789Z,7.88
2022-12-22T19:08:27.922Z,8.52
2022-12-22T19:11:05.168Z,6.05
2022-12-22T19:13:35.525Z,6.35
2022-12-22T19:16:02.959Z,7.43
2022-12-22T19:18:30.734Z,7.88
2022-12-22T19:20:58.082Z,5.97
2022-12-22T19:23:26.276Z,5.70
2022-12-22T19:26:01.668Z,5.72
2022-12-22T19:28:39.576Z,5.75
2022-12-22T19:31:08.814Z,5.38
2022-12-22T19:33:41.561Z,5.30
2022-12-22T19:36:22.159Z,6.15
2022-12-22T19:38:50.951Z,4.70
2022-12-22T19:41:47.132Z,5.28
2022-12-22T19:44:24.800Z,4.65
2022-12-22T19:46:54.074Z,4.47
2022-12-22T19:49:24.309Z,9.70
2022-12-22T19:51:51.793Z,7.57
2022-12-22T19:54:22.009Z,6.70
2022-12-22T19:56:52.645Z,6.70
2022-12-22T19:59:47.525Z,9.07
2022-12-22T20:02:21.302Z,9.00
2022-12-22T20:04:49.685Z,9.07
2022-12-22T20:07:19.622Z,6.97
2022-12-22T20:09:47.270Z,7.88
2022-12-22T20:12:31.163Z,7.85
2022-12-22T20:14:59.267Z,10.70
2022-12-22T20:17:26.786Z,10.07
2022-12-22T20:19:54.266Z,8.50
2022-12-22T20:22:23.497Z,6.43
2022-12-22T20:24:51.419Z,13.13
2022-12-22T20:27:23.349Z,11.38
2022-12-22T20:29:50.685Z,11.25
2022-12-22T20:32:23.846Z,11.50
2022-12-22T20:34:55.258Z,13.65
2022-12-22T20:37:22.683Z,11.57
2022-12-22T20:39:50.028Z,11.63
2022-12-22T20:42:23.090Z,12.23
2022-12-22T20:45:02.986Z,11.35
2022-12-22T20:47:33.593Z,11.02
2022-12-22T20:50:00.986Z,12.13
2022-12-22T20:52:29.180Z,10.30
2022-12-22T20:54:56.610Z,12.93
2022-12-22T20:57:25.050Z,15.43
2022-12-22T20:59:56.465Z,13.13
2022-12-22T21:02:28.155Z,12.10
2022-12-22T21:04:56.481Z,14.95
2022-12-22T21:07:24.155Z,13.52
2022-12-22T21:09:51.417Z,12.20
2022-12-22T21:12:18.772Z,11.02
2022-12-22T21:14:46.106Z,12.23
2022-12-22T21:17:16.949Z,12.02
2022-12-22T21:19:44.553Z,15.70
2022-12-22T21:22:12.376Z,11.38
2022-12-22T21:24:41.620Z,10.35
2022-12-22T21:27:17.136Z,14.07
2022-12-22T21:29:44.554Z,11.25
2022-12-22T21:32:15.522Z,11.88
2022-12-22T21:34:42.901Z,9.82
2022-12-22T21:37:17.481Z,12.60
2022-12-22T21:39:44.925Z,14.02
2022-12-22T21:42:17.523Z,9.82
2022-12-22T21:44:45.234Z,11.02
2022-12-22T21:47:15.049Z,8.07
2022-12-22T21:49:42.401Z,10.75
2022-12-22T21:52:09.765Z,9.68
2022-12-22T21:54:37.054Z,9.98
2022-12-22T21:57:04.752Z,9.93
2022-12-22T21:59:32.077Z,10.27
2022-12-22T22:01:59.537Z,10.38
2022-12-22T22:04:26.988Z,12.77
2022-12-22T22:06:54.314Z,11.32
2022-12-22T22:09:21.625Z,11.48
2022-12-22T22:12:07.713Z,11.77
2022-12-22T22:14:35.116Z,11.02
2022-12-22T22:17:02.480Z,12.23
2022-12-22T22:19:29.856Z,11.15
2022-12-22T22:21:57.200Z,6.47
2022-12-22T22:24:24.490Z,8.98
2022-12-22T22:26:52.019Z,11.07
2022-12-22T22:29:19.386Z,9.73
2022-12-22T22:31:46.809Z,11.48
2022-12-22T22:34:15.436Z,10.35
2022-12-22T22:36:42.827Z,11.25
2022-12-22T22:39:10.410Z,7.68
2022-12-22T22:41:43.157Z,8.27
2022-12-22T22:44:11.580Z,6.22
2022-12-22T22:46:39.179Z,6.63
2022-12-22T22:49:07.422Z,5.07
2022-12-22T22:51:34.862Z,7.30
2022-12-22T22:54:02.186Z,7.53
2022-12-22T22:56:29.568Z,8.80
2022-12-22T22:58:58.936Z,7.63
2022-12-22T23:01:26.372Z,8.05
2022-12-22T23:03:53.825Z,8.10
2022-12-22T23:06:21.296Z,9.30
2022-12-22T23:08:49.440Z,8.35
2022-12-22T23:11:17.135Z,9.82
2022-12-22T23:13:45.423Z,8.00
2022-12-22T23:16:12.900Z,9.02
2022-12-22T23:18:41.187Z,8.40
2022-12-22T23:21:09.587Z,7.85
2022-12-22T23:23:37.213Z,9.80
2022-12-22T23:26:06.019Z,6.75
2022-12-22T23:28:33.942Z,7.38
2022-12-22T23:31:01.274Z,7.38
2022-12-22T23:33:31.352Z,6.30
2022-12-22T23:35:58.695Z,5.30
2022-12-22T23:38:26.495Z,7.70
2022-12-22T23:41:00.936Z,7.95
2022-12-22T23:43:28.287Z,6.93
2022-12-22T23:45:55.621Z,5.85
2022-12-22T23:48:22.964Z,9.35
2022-12-22T23:50:50.324Z,7.25
2022-12-22T23:53:17.884Z,6.47
2022-12-22T23:55:45.891Z,11.63
2022-12-22T23:58:13.533Z,7.40
